createdAt,value
2022-11-13T00:00:01.028Z,40.20
2022-11-13T00:10:00.278Z,43.80
2022-11-13T00:20:01.218Z,37.60
2022-11-13T00:40:00.146Z,46.60
2022-11-13T00:50:01.396Z,35.00
2022-11-13T01:00:01.256Z,37.40
2022-11-13T01:20:02.568Z,32.00
2022-11-13T01:40:01.515Z,25.80
2022-11-13T02:00:01.033Z,27.90
2022-11-13T02:10:01.908Z,27.20
2022-11-13T02:20:00.122Z,29.00
2022-11-13T02:30:01.325Z,27.90
2022-11-13T02:40:01.994Z,26.00
2022-11-13T03:00:01.539Z,26.40
2022-11-13T03:10:01.751Z,21.70
2022-11-13T03:20:01.277Z,22.90
2022-11-13T03:40:00.800Z,20.40
2022-11-13T03:50:00.271Z,19.70
2022-11-13T04:00:00.145Z,21.10
2022-11-13T04:10:01.325Z,23.00
2022-11-13T04:20:00.988Z,18.70
2022-11-13T04:30:01.113Z,20.20
2022-11-13T04:40:01.246Z,22.10
2022-11-13T04:50:01.809Z,20.20
2022-11-13T05:00:00.161Z,19.70
2022-11-13T05:20:02.156Z,17.20
2022-11-13T05:30:01.386Z,18.50
2022-11-13T05:40:00.987Z,21.00
2022-11-13T05:50:00.273Z,17.20
2022-11-13T06:00:01.030Z,19.80
2022-11-13T06:20:01.322Z,17.30
2022-11-13T06:30:00.298Z,16.90
2022-11-13T06:40:00.800Z,26.80
2022-11-13T06:50:01.472Z,26.80
2022-11-13T07:00:00.145Z,26.90
2022-11-13T07:10:01.718Z,28.50
2022-11-13T07:20:00.157Z,24.50
2022-11-13T07:30:03.750Z,23.60
2022-11-13T07:40:01.226Z,23.60
2022-11-13T07:50:08.266Z,25.50
2022-11-13T08:00:01.050Z,20.50
2022-11-13T08:10:01.017Z,23.80
2022-11-13T08:20:02.087Z,23.90
2022-11-13T08:30:01.183Z,27.80
2022-11-13T08:40:01.269Z,29.10
2022-11-13T08:50:01.635Z,30.00
2022-11-13T09:00:01.332Z,28.00
2022-11-13T09:10:01.568Z,26.40
2022-11-13T09:20:04.155Z,27.80
2022-11-13T09:30:00.263Z,22.90
2022-11-13T09:40:01.538Z,26.30
2022-11-13T09:50:02.103Z,22.40
2022-11-13T10:00:00.154Z,19.60
2022-11-13T10:10:00.261Z,19.70
2022-11-13T10:20:00.186Z,20.80
2022-11-13T10:30:01.316Z,19.40
2022-11-13T10:40:01.229Z,21.80
2022-11-13T10:50:01.130Z,16.40
2022-11-13T11:00:01.317Z,18.20
2022-11-13T11:10:01.168Z,16.90
2022-11-13T11:20:01.288Z,16.40
2022-11-13T11:30:01.349Z,23.40
2022-11-13T11:40:00.152Z,21.90
2022-11-13T11:50:01.140Z,21.90
2022-11-13T12:00:01.086Z,20.30
2022-11-13T12:10:00.269Z,21.10
2022-11-13T12:20:00.123Z,18.60
2022-11-13T12:30:01.128Z,23.70
2022-11-13T12:40:02.041Z,20.50
2022-11-13T12:50:01.370Z,31.20
2022-11-13T13:00:01.571Z,27.00
2022-11-13T13:10:00.257Z,24.20
2022-11-13T13:20:01.204Z,24.80
2022-11-13T13:30:01.146Z,23.10
2022-11-13T13:40:01.201Z,23.50
2022-11-13T13:50:01.095Z,20.90
2022-11-13T14:00:01.333Z,19.60
2022-11-13T14:10:01.353Z,25.70
2022-11-13T14:20:01.152Z,25.10
2022-11-13T14:30:00.260Z,23.10
2022-11-13T14:40:01.063Z,22.70
2022-11-13T14:50:01.232Z,23.90
2022-11-13T15:00:01.036Z,23.40
2022-11-13T15:10:00.281Z,21.20
2022-11-13T15:20:04.172Z,28.40
2022-11-13T15:30:01.360Z,22.20
2022-11-13T15:40:01.016Z,21.70
2022-11-13T15:50:13.261Z,21.80
2022-11-13T16:00:01.120Z,22.30
2022-11-13T16:10:01.394Z,26.10
2022-11-13T16:20:01.079Z,22.50
2022-11-13T16:30:05.410Z,25.90
2022-11-13T16:40:00.173Z,24.30
2022-11-13T16:50:01.644Z,19.80
2022-11-13T17:00:01.111Z,26.80
2022-11-13T17:10:29.465Z,27.70
2022-11-13T17:20:01.065Z,22.00
2022-11-13T17:30:00.287Z,28.40
2022-11-13T17:40:01.051Z,24.40
2022-11-13T17:50:05.788Z,29.30
2022-11-13T18:00:01.094Z,32.00
2022-11-13T18:10:01.594Z,32.80
2022-11-13T18:20:02.126Z,37.10
2022-11-13T18:30:01.443Z,29.20
2022-11-13T18:40:01.018Z,38.70
2022-11-13T18:50:01.215Z,36.60
2022-11-13T19:00:02.376Z,38.80
2022-11-13T19:10:01.547Z,38.90
2022-11-13T19:20:01.560Z,36.30
2022-11-13T19:30:01.688Z,34.20
2022-11-13T19:40:00.168Z,31.70
2022-11-13T19:50:01.170Z,34.70
2022-11-13T20:00:01.238Z,32.30
2022-11-13T20:10:01.174Z,30.50
2022-11-13T20:20:01.039Z,32.00
2022-11-13T20:30:01.692Z,34.40
2022-11-13T20:40:04.097Z,33.50
2022-11-13T20:50:01.176Z,39.80
2022-11-13T21:00:01.104Z,43.00
2022-11-13T21:10:00.271Z,42.00
2022-11-13T21:20:00.992Z,38.90
2022-11-13T21:30:01.575Z,38.20
2022-11-13T21:40:00.987Z,36.30
2022-11-13T21:50:00.269Z,43.00
2022-11-13T22:00:01.208Z,40.50
2022-11-13T22:10:04.137Z,41.70
2022-11-13T22:20:01.098Z,47.70
2022-11-13T22:30:01.202Z,55.40
2022-11-13T22:40:00.151Z,57.30
2022-11-13T22:50:00.254Z,58.60
2022-11-13T23:00:01.283Z,63.70
2022-11-13T23:10:00.246Z,59.30
2022-11-13T23:20:01.067Z,61.20
2022-11-13T23:30:00.279Z,54.80
2022-11-13T23:40:01.493Z,74.70
2022-11-13T23:50:00.279Z,61.10
